Time;durP1;ratioP1;P1;durP2;ratioP2;P2;SDS_P1;SDS_P2;PMS_P1;PMS_P2;Temp;Humidity;BMP_temperature;BMP_pressure;BME280_temperature;BME280_humidity;BME280_pressure;Samples;Min_cycle;Max_cycle;Signal;HPM_P1;HPM_P2
2022/05/23 00:02:07;;;;;;;2.33;1.50;;;;;;;;;;4992899;28;95505;-71
2022/05/23 00:04:34;;;;;;;2.95;1.58;;;;;;;;;;4999720;28;97597;-72
2022/05/23 00:07:00;;;;;;;2.65;1.70;;;;;;;;;;4989201;28;96092;-71
2022/05/23 00:09:27;;;;;;;4.75;1.77;;;;;;;;;;4985908;28;96862;-73
2022/05/23 00:11:53;;;;;;;1.70;1.50;;;;;;;;;;4987736;28;96207;-73
2022/05/23 00:14:20;;;;;;;3.35;1.80;;;;;;;;;;4988087;28;96187;-73
2022/05/23 00:16:47;;;;;;;5.43;1.95;;;;;;;;;;4984758;28;96588;-71
2022/05/23 00:19:14;;;;;;;3.15;1.65;;;;;;;;;;4985611;28;97158;-71
2022/05/23 00:21:41;;;;;;;2.35;1.52;;;;;;;;;;4984090;28;95486;-73
2022/05/23 00:24:08;;;;;;;2.35;1.50;;;;;;;;;;4996442;28;96840;-73
2022/05/23 00:26:35;;;;;;;1.35;1.23;;;;;;;;;;4995437;28;95492;-71
2022/05/23 00:29:02;;;;;;;4.03;1.63;;;;;;;;;;5006328;28;97109;-71
2022/05/23 00:31:29;;;;;;;2.90;1.65;;;;;;;;;;5005247;28;97288;-72
2022/05/23 00:36:41;;;;;;;4.40;1.48;;;;;;;;;;4997802;28;96626;-72
2022/05/23 00:39:07;;;;;;;2.17;1.42;;;;;;;;;;4990233;28;97355;-70
2022/05/23 00:44:25;;;;;;;3.35;1.42;;;;;;;;;;4989233;28;97152;-71
2022/05/23 00:46:58;;;;;;;3.95;1.77;;;;;;;;;;4995435;28;97197;-71
2022/05/23 00:49:35;;;;;;;2.20;1.40;;;;;;;;;;4988401;28;96953;-70
2022/05/23 00:52:03;;;;;;;4.45;1.85;;;;;;;;;;4989533;28;97312;-71
2022/05/23 00:54:33;;;;;;;3.25;1.80;;;;;;;;;;4991980;28;95925;-72
2022/05/23 00:57:05;;;;;;;3.90;1.67;;;;;;;;;;4989100;28;97463;-71
2022/05/23 00:59:32;;;;;;;2.53;1.60;;;;;;;;;;4987489;28;97119;-71
2022/05/23 01:02:01;;;;;;;3.63;1.60;;;;;;;;;;4988833;28;96742;-70
2022/05/23 01:04:29;;;;;;;2.72;1.60;;;;;;;;;;4993137;28;96330;-71
2022/05/23 01:06:56;;;;;;;4.07;1.70;;;;;;;;;;4988228;28;99461;-71
2022/05/23 01:09:25;;;;;;;2.33;1.60;;;;;;;;;;4988959;28;97564;-73
2022/05/23 01:11:52;;;;;;;3.70;1.88;;;;;;;;;;4992221;28;97239;-72
2022/05/23 01:14:18;;;;;;;2.40;1.70;;;;;;;;;;4986837;28;95781;-71
2022/05/23 01:16:45;;;;;;;3.63;1.65;;;;;;;;;;4994004;28;95622;-70
2022/05/23 01:19:11;;;;;;;2.72;1.55;;;;;;;;;;4987328;28;96759;-73
2022/05/23 01:21:37;;;;;;;2.67;1.70;;;;;;;;;;4989844;28;97016;-71
2022/05/23 01:24:09;;;;;;;2.53;1.60;;;;;;;;;;4995406;28;97036;-72
2022/05/23 01:26:35;;;;;;;3.03;1.77;;;;;;;;;;4991772;28;97319;-72
2022/05/23 01:29:01;;;;;;;3.42;1.67;;;;;;;;;;4991284;28;96447;-72
2022/05/23 01:31:27;;;;;;;4.25;1.80;;;;;;;;;;4994851;28;97121;-71
2022/05/23 01:33:54;;;;;;;2.92;1.60;;;;;;;;;;4989661;28;95729;-70
2022/05/23 01:36:20;;;;;;;3.70;1.67;;;;;;;;;;4993126;28;96901;-70
2022/05/23 01:38:47;;;;;;;4.28;1.60;;;;;;;;;;5000929;28;97261;-71
2022/05/23 01:41:13;;;;;;;2.40;1.58;;;;;;;;;;4993377;28;95357;-71
2022/05/23 01:43:39;;;;;;;2.92;1.60;;;;;;;;;;4990063;28;98978;-72
2022/05/23 01:46:05;;;;;;;2.13;1.50;;;;;;;;;;4991248;28;97301;-71
2022/05/23 01:48:32;;;;;;;3.42;1.60;;;;;;;;;;4989927;28;95369;-72
2022/05/23 01:50:58;;;;;;;1.83;1.48;;;;;;;;;;4993655;28;96937;-72
2022/05/23 01:53:26;;;;;;;5.53;1.70;;;;;;;;;;4991782;28;97627;-73
2022/05/23 01:55:52;;;;;;;2.58;1.80;;;;;;;;;;4989735;28;96891;-72
2022/05/23 02:01:15;;;;;;;2.40;1.65;;;;;;;;;;4990144;28;97273;-72
2022/05/23 02:03:43;;;;;;;2.97;1.73;;;;;;;;;;4988969;28;96673;-71
2022/05/23 02:06:09;;;;;;;3.05;1.80;;;;;;;;;;4992851;28;97459;-72
2022/05/23 02:08:36;;;;;;;3.25;1.90;;;;;;;;;;4989216;28;97105;-73
2022/05/23 02:11:05;;;;;;;3.47;1.80;;;;;;;;;;4993541;28;96869;-73
2022/05/23 02:13:33;;;;;;;4.75;1.58;;;;;;;;;;4990045;28;97322;-72
2022/05/23 02:16:00;;;;;;;2.80;1.73;;;;;;;;;;4990197;28;96778;-73
2022/05/23 02:18:26;;;;;;;3.83;1.73;;;;;;;;;;4988652;28;96217;-73
2022/05/23 02:20:53;;;;;;;3.60;2.00;;;;;;;;;;4994691;28;96585;-72
2022/05/23 02:23:19;;;;;;;3.10;1.67;;;;;;;;;;4989348;28;96784;-73
2022/05/23 02:25:45;;;;;;;4.53;2.10;;;;;;;;;;4992781;28;96337;-73
2022/05/23 02:28:12;;;;;;;2.47;1.42;;;;;;;;;;4993022;28;96554;-72
2022/05/23 02:30:38;;;;;;;4.57;1.88;;;;;;;;;;4989254;28;95783;-73
2022/05/23 02:33:05;;;;;;;2.70;1.67;;;;;;;;;;4972348;28;97347;-73
2022/05/23 02:35:31;;;;;;;2.22;1.70;;;;;;;;;;4988353;28;95786;-72
2022/05/23 02:37:58;;;;;;;5.57;1.75;;;;;;;;;;4979390;28;97434;-71
2022/05/23 02:40:24;;;;;;;2.65;1.73;;;;;;;;;;4986576;28;97232;-71
2022/05/23 02:42:50;;;;;;;4.03;2.08;;;;;;;;;;5005906;28;96476;-71
2022/05/23 02:45:17;;;;;;;3.03;1.83;;;;;;;;;;4990954;28;97104;-72
2022/05/23 02:47:43;;;;;;;2.25;1.60;;;;;;;;;;4985217;28;96708;-71
2022/05/23 02:50:11;;;;;;;3.80;1.83;;;;;;;;;;4984009;28;96760;-70
2022/05/23 02:52:38;;;;;;;3.60;1.80;;;;;;;;;;4991195;28;96943;-71
2022/05/23 02:55:05;;;;;;;3.50;1.98;;;;;;;;;;4990527;28;96170;-72
2022/05/23 02:57:31;;;;;;;3.22;2.10;;;;;;;;;;4992296;28;95787;-70
2022/05/23 02:59:58;;;;;;;4.32;2.28;;;;;;;;;;4978506;28;95913;-74
2022/05/23 03:05:09;;;;;;;5.70;2.38;;;;;;;;;;4988904;28;97172;-74
2022/05/23 03:07:36;;;;;;;2.72;1.77;;;;;;;;;;4988054;28;95521;-74
2022/05/23 03:10:02;;;;;;;6.72;2.28;;;;;;;;;;4988280;28;95812;-71
2022/05/23 03:12:29;;;;;;;4.45;1.98;;;;;;;;;;4983873;28;97515;-72
2022/05/23 03:14:55;;;;;;;2.92;1.95;;;;;;;;;;4990943;28;95382;-72
2022/05/23 03:17:21;;;;;;;4.63;2.53;;;;;;;;;;4985623;28;96049;-74
2022/05/23 03:19:48;;;;;;;2.95;1.90;;;;;;;;;;4987001;28;97015;-73
2022/05/23 03:27:44;;;;;;;3.13;2.05;;;;;;;;;;5003045;28;97431;-73
2022/05/23 03:30:11;;;;;;;3.80;2.10;;;;;;;;;;4992234;28;96850;-73
2022/05/23 03:32:39;;;;;;;4.60;2.33;;;;;;;;;;4986359;28;97053;-72
2022/05/23 03:35:07;;;;;;;6.05;2.75;;;;;;;;;;4991767;28;95186;-73
2022/05/23 03:37:33;;;;;;;3.17;2.25;;;;;;;;;;4987103;28;96986;-71
2022/05/23 03:40:04;;;;;;;4.13;2.20;;;;;;;;;;4986076;28;97657;-72
2022/05/23 03:42:30;;;;;;;4.30;2.17;;;;;;;;;;4989807;28;96724;-72
2022/05/23 03:44:56;;;;;;;5.90;2.35;;;;;;;;;;4984885;28;96542;-72
2022/05/23 03:47:23;;;;;;;3.15;2.00;;;;;;;;;;4988179;28;95456;-71
2022/05/23 03:49:49;;;;;;;4.70;2.42;;;;;;;;;;4986434;28;97475;-71
2022/05/23 03:52:15;;;;;;;4.30;2.22;;;;;;;;;;5006316;28;97333;-72
2022/05/23 03:54:41;;;;;;;3.55;2.00;;;;;;;;;;4996199;28;95554;-71
2022/05/23 03:57:08;;;;;;;6.68;2.40;;;;;;;;;;5004283;28;96786;-71
2022/05/23 03:59:34;;;;;;;3.97;2.30;;;;;;;;;;4988554;28;97664;-70
2022/05/23 04:02:01;;;;;;;3.40;2.05;;;;;;;;;;4991742;28;95266;-70
2022/05/23 04:04:28;;;;;;;4.25;2.00;;;;;;;;;;5000991;28;97080;-71
2022/05/23 04:07:02;;;;;;;4.00;2.15;;;;;;;;;;4988450;28;95974;-73
2022/05/23 04:09:29;;;;;;;5.05;2.28;;;;;;;;;;5005275;28;96832;-71
2022/05/23 04:11:56;;;;;;;4.18;2.38;;;;;;;;;;4988941;28;97585;-72
2022/05/23 04:14:22;;;;;;;5.05;2.50;;;;;;;;;;4988639;28;97341;-71
2022/05/23 04:16:49;;;;;;;4.05;2.28;;;;;;;;;;4988273;28;97144;-72
2022/05/23 04:19:16;;;;;;;5.63;2.28;;;;;;;;;;4994420;28;96627;-69
2022/05/23 04:21:43;;;;;;;4.18;2.33;;;;;;;;;;4993533;28;97369;-73
2022/05/23 19:33:57;;;;;;;6.82;3.60;;;;;;;;;;5055646;27;95728;-71
2022/05/23 19:36:23;;;;;;;7.35;4.00;;;;;;;;;;5033300;27;97071;-71
2022/05/23 19:38:50;;;;;;;9.13;4.68;;;;;;;;;;5040538;27;95300;-71
2022/05/23 19:41:16;;;;;;;7.80;4.05;;;;;;;;;;5045556;27;97224;-73
2022/05/23 19:43:42;;;;;;;7.28;4.30;;;;;;;;;;5033493;27;97596;-71
2022/05/23 19:46:11;;;;;;;9.13;4.75;;;;;;;;;;5043619;27;96135;-71
2022/05/23 19:48:43;;;;;;;7.47;4.35;;;;;;;;;;5042069;27;96549;-71
2022/05/23 19:51:10;;;;;;;6.38;3.60;;;;;;;;;;5045952;27;97496;-71
2022/05/23 19:53:37;;;;;;;8.40;3.60;;;;;;;;;;5039145;27;96431;-72
2022/05/23 19:56:04;;;;;;;6.00;3.53;;;;;;;;;;5040162;27;97342;-72
2022/05/23 19:58:50;;;;;;;5.20;3.22;;;;;;;;;;5045501;27;96418;-72
2022/05/23 20:01:17;;;;;;;6.93;3.92;;;;;;;;;;5039455;27;95719;-72
2022/05/23 20:07:01;;;;;;;6.32;4.30;;;;;;;;;;5036667;27;97256;-72
2022/05/23 20:09:19;;;;;;;8.10;4.78;;;;;;;;;;5027963;27;98254;-71
2022/05/23 20:11:45;;;;;;;8.02;4.90;;;;;;;;;;5036208;27;97577;-72
2022/05/23 20:14:11;;;;;;;7.88;4.72;;;;;;;;;;5042539;27;95117;-72
2022/05/23 20:16:37;;;;;;;7.45;4.65;;;;;;;;;;5040726;27;96862;-72
2022/05/23 20:19:05;;;;;;;6.20;4.25;;;;;;;;;;5027494;27;96416;-71
2022/05/23 20:21:32;;;;;;;6.28;3.72;;;;;;;;;;5040392;27;96797;-71
2022/05/23 20:23:58;;;;;;;7.38;3.83;;;;;;;;;;5035442;27;97259;-72
2022/05/23 20:26:28;;;;;;;5.45;3.40;;;;;;;;;;5047141;27;96826;-71
2022/05/23 20:28:54;;;;;;;5.95;3.60;;;;;;;;;;5048912;27;96818;-71
2022/05/23 20:31:21;;;;;;;6.47;3.70;;;;;;;;;;5046813;27;97344;-72
2022/05/23 20:33:47;;;;;;;7.60;4.03;;;;;;;;;;5049447;27;95740;-72
2022/05/23 20:36:14;;;;;;;5.97;3.33;;;;;;;;;;5059084;27;97105;-73
2022/05/23 20:38:40;;;;;;;5.38;3.40;;;;;;;;;;5077045;27;97538;-71
2022/05/23 20:41:06;;;;;;;6.75;3.80;;;;;;;;;;5089759;27;96812;-72
2022/05/23 20:43:33;;;;;;;5.32;3.50;;;;;;;;;;5052042;27;97278;-72
2022/05/23 20:45:59;;;;;;;5.15;3.28;;;;;;;;;;5035862;28;95180;-72
2022/05/23 20:48:26;;;;;;;7.93;3.60;;;;;;;;;;5034965;27;96923;-73
2022/05/23 20:50:52;;;;;;;5.55;3.70;;;;;;;;;;5040373;27;97431;-73
2022/05/23 20:53:20;;;;;;;5.88;3.38;;;;;;;;;;5037903;27;95373;-71
2022/05/23 20:55:46;;;;;;;5.90;3.45;;;;;;;;;;5050046;27;96834;-72
2022/05/23 20:58:14;;;;;;;7.28;3.78;;;;;;;;;;5038045;27;97270;-72
2022/05/23 21:00:40;;;;;;;7.60;3.70;;;;;;;;;;5042122;27;95169;-71
2022/05/23 21:03:07;;;;;;;7.38;3.95;;;;;;;;;;5034960;28;97206;-73
2022/05/23 21:05:33;;;;;;;7.15;3.85;;;;;;;;;;5041091;27;95262;-73
2022/05/23 21:08:01;;;;;;;7.47;4.00;;;;;;;;;;5053865;27;96978;-73
2022/05/23 21:10:28;;;;;;;6.07;4.18;;;;;;;;;;5054055;27;97445;-72
2022/05/23 21:13:03;;;;;;;8.75;4.10;;;;;;;;;;5036194;27;95407;-72
2022/05/23 21:15:30;;;;;;;6.20;4.07;;;;;;;;;;5034859;28;96796;-71
2022/05/23 21:17:57;;;;;;;7.40;4.43;;;;;;;;;;5047075;27;97337;-72
2022/05/23 21:20:23;;;;;;;7.95;4.55;;;;;;;;;;5053557;27;95370;-71
2022/05/23 21:22:49;;;;;;;6.65;4.20;;;;;;;;;;5057279;27;95962;-71
2022/05/23 21:25:21;;;;;;;8.32;4.93;;;;;;;;;;5054738;27;95451;-71
2022/05/23 21:27:51;;;;;;;6.50;4.55;;;;;;;;;;5054434;27;97219;-71
2022/05/23 21:30:20;;;;;;;7.95;5.22;;;;;;;;;;5054396;27;97396;-71
2022/05/23 21:32:47;;;;;;;10.23;5.15;;;;;;;;;;5054908;27;95185;-72
2022/05/23 21:35:13;;;;;;;7.82;5.03;;;;;;;;;;5055556;27;96506;-72
2022/05/23 21:37:42;;;;;;;8.23;4.82;;;;;;;;;;5053172;27;97688;-71
2022/05/23 21:48:23;;;;;;;7.68;5.63;;;;;;;;;;5041338;27;96681;-72
2022/05/23 21:50:50;;;;;;;10.05;6.00;;;;;;;;;;5034140;28;97193;-72
2022/05/23 21:53:16;;;;;;;9.65;5.45;;;;;;;;;;5034496;28;95331;-72
2022/05/23 21:55:44;;;;;;;9.85;5.82;;;;;;;;;;5033763;27;96705;-72
2022/05/23 21:58:10;;;;;;;10.88;5.82;;;;;;;;;;5043819;27;96111;-73
2022/05/23 22:00:41;;;;;;;10.18;6.00;;;;;;;;;;5054365;27;95352;-72
2022/05/23 22:03:07;;;;;;;14.50;6.43;;;;;;;;;;5054997;27;97381;-73
2022/05/23 22:05:33;;;;;;;10.38;6.45;;;;;;;;;;5056929;27;97435;-74
2022/05/23 22:08:00;;;;;;;11.50;6.50;;;;;;;;;;5053098;27;96875;-72
2022/05/23 22:10:26;;;;;;;10.63;6.55;;;;;;;;;;5054184;27;97699;-72
2022/05/23 22:12:52;;;;;;;9.63;6.45;;;;;;;;;;5054592;27;95111;-71
2022/05/23 22:15:18;;;;;;;9.50;6.20;;;;;;;;;;5036557;27;96535;-69
2022/05/23 22:17:45;;;;;;;10.13;6.28;;;;;;;;;;5053345;27;95856;-71
2022/05/23 22:20:11;;;;;;;12.85;7.20;;;;;;;;;;5053905;27;96129;-71
2022/05/23 22:22:38;;;;;;;12.05;7.25;;;;;;;;;;5054318;27;97179;-71
2022/05/23 22:25:04;;;;;;;14.43;7.22;;;;;;;;;;5054207;27;97422;-71
2022/05/23 22:27:31;;;;;;;11.32;7.18;;;;;;;;;;5038160;27;95377;-71
2022/05/23 22:29:57;;;;;;;11.88;7.40;;;;;;;;;;5054315;27;97325;-72
2022/05/23 22:32:23;;;;;;;13.68;8.13;;;;;;;;;;5053117;27;95305;-72
2022/05/23 22:34:50;;;;;;;11.55;7.75;;;;;;;;;;5054665;27;97105;-72
2022/05/23 22:37:16;;;;;;;10.05;6.45;;;;;;;;;;5052705;27;97798;-72
2022/05/23 22:39:42;;;;;;;16.90;7.80;;;;;;;;;;5052792;27;95380;-72
2022/05/23 22:42:09;;;;;;;11.43;7.28;;;;;;;;;;5054492;27;97241;-72
2022/05/23 22:44:35;;;;;;;11.88;7.28;;;;;;;;;;5053688;27;97276;-73
2022/05/23 22:47:05;;;;;;;10.27;6.43;;;;;;;;;;5035656;27;95432;-73
2022/05/23 22:49:32;;;;;;;11.07;6.85;;;;;;;;;;5025021;28;96803;-72
2022/05/23 22:51:58;;;;;;;11.02;6.78;;;;;;;;;;5034190;28;95109;-74
2022/05/23 22:54:25;;;;;;;12.63;7.18;;;;;;;;;;5033184;28;96776;-73
2022/05/23 22:56:51;;;;;;;12.70;6.30;;;;;;;;;;5033676;28;97012;-73
2022/05/23 22:59:17;;;;;;;11.70;7.15;;;;;;;;;;5044206;27;96191;-71
2022/05/23 23:01:43;;;;;;;10.88;6.40;;;;;;;;;;5053613;27;96853;-74
2022/05/23 23:04:22;;;;;;;12.38;6.82;;;;;;;;;;5035331;27;96269;-72
2022/05/23 23:06:53;;;;;;;11.43;6.75;;;;;;;;;;5050314;27;95187;-72
2022/05/23 23:09:19;;;;;;;9.90;6.13;;;;;;;;;;5040031;27;96615;-72
2022/05/23 23:11:45;;;;;;;10.27;6.07;;;;;;;;;;5056798;27;97346;-73
2022/05/23 23:14:12;;;;;;;9.65;5.97;;;;;;;;;;5053718;27;96762;-72
2022/05/23 23:16:38;;;;;;;10.38;6.10;;;;;;;;;;5052866;27;97475;-72
2022/05/23 23:19:05;;;;;;;10.40;5.80;;;;;;;;;;5047417;27;95286;-72
2022/05/23 23:21:32;;;;;;;9.73;5.97;;;;;;;;;;5032330;28;95677;-74
2022/05/23 23:23:58;;;;;;;10.02;5.60;;;;;;;;;;5033192;27;97555;-72
2022/05/23 23:26:24;;;;;;;10.23;6.30;;;;;;;;;;5052248;27;95337;-74
2022/05/23 23:28:51;;;;;;;9.20;6.13;;;;;;;;;;5053050;27;96764;-72
2022/05/23 23:31:17;;;;;;;10.77;5.63;;;;;;;;;;5052761;27;97476;-75
2022/05/23 23:39:13;;;;;;;11.65;5.88;;;;;;;;;;5053841;27;95083;-71
2022/05/23 23:41:39;;;;;;;15.02;6.30;;;;;;;;;;5052706;27;97417;-70
2022/05/23 23:44:07;;;;;;;9.88;6.18;;;;;;;;;;5052498;27;96878;-76
2022/05/23 23:46:34;;;;;;;10.88;5.90;;;;;;;;;;5051797;27;95312;-73
2022/05/23 23:49:00;;;;;;;10.05;6.30;;;;;;;;;;5052790;27;96539;-75
2022/05/23 23:51:26;;;;;;;10.90;6.47;;;;;;;;;;5051547;27;97289;-73
2022/05/23 23:53:52;;;;;;;11.52;5.85;;;;;;;;;;5055963;27;95185;-75
2022/05/23 23:56:19;;;;;;;9.85;6.32;;;;;;;;;;5045877;27;97416;-72
2022/05/23 23:58:45;;;;;;;9.82;6.22;;;;;;;;;;5032236;28;95509;-72
